createdAt,value
2022-07-29T00:01:45.648Z,17.53
2022-07-29T00:04:12.759Z,17.58
2022-07-29T00:06:39.703Z,17.50
2022-07-29T00:09:06.359Z,17.32
2022-07-29T00:11:32.939Z,17.49
2022-07-29T00:13:59.665Z,17.32
2022-07-29T00:16:26.203Z,17.54
2022-07-29T00:18:52.837Z,17.54
2022-07-29T00:21:19.386Z,17.33
2022-07-29T00:23:45.932Z,17.19
2022-07-29T00:26:12.473Z,16.99
2022-07-29T00:28:39.071Z,16.65
2022-07-29T00:31:05.711Z,17.10
2022-07-29T00:33:32.398Z,17.19
2022-07-29T00:35:58.936Z,17.25
2022-07-29T00:38:25.621Z,17.17
2022-07-29T00:40:52.199Z,16.87
2022-07-29T00:43:18.894Z,17.05
2022-07-29T00:45:45.777Z,17.29
2022-07-29T00:48:12.400Z,17.32
2022-07-29T00:50:38.992Z,17.36
2022-07-29T00:53:07.122Z,17.35
2022-07-29T00:55:33.945Z,17.20
2022-07-29T00:58:00.784Z,17.24
2022-07-29T01:00:29.054Z,16.90
2022-07-29T01:02:55.797Z,16.45
2022-07-29T01:05:24.213Z,16.59
2022-07-29T01:07:53.291Z,16.93
2022-07-29T01:10:20.711Z,16.90
2022-07-29T01:12:48.980Z,16.90
2022-07-29T01:15:15.885Z,16.72
2022-07-29T01:18:14.736Z,16.64
2022-07-29T01:21:03.612Z,16.65
2022-07-29T01:23:48.625Z,16.92
2022-07-29T01:26:20.294Z,17.04
2022-07-29T01:28:47.234Z,16.93
2022-07-29T01:31:17.813Z,16.71
2022-07-29T01:33:56.214Z,16.54
2022-07-29T01:36:22.788Z,16.38
2022-07-29T01:38:54.998Z,16.28
2022-07-29T01:41:22.318Z,16.34
2022-07-29T01:44:00.520Z,16.71
2022-07-29T01:46:38.293Z,16.43
2022-07-29T01:49:08.241Z,16.53
2022-07-29T01:51:41.112Z,16.23
2022-07-29T01:54:17.920Z,16.26
2022-07-29T01:56:46.274Z,16.38
2022-07-29T01:59:13.396Z,16.50
2022-07-29T02:01:42.050Z,16.49
2022-07-29T02:04:10.931Z,16.74
2022-07-29T02:06:39.422Z,16.66
2022-07-29T02:09:08.548Z,16.85
2022-07-29T02:11:36.578Z,16.81
2022-07-29T02:14:04.920Z,16.67
2022-07-29T02:16:33.307Z,16.76
2022-07-29T02:19:01.873Z,16.84
2022-07-29T02:21:29.190Z,16.28
2022-07-29T02:23:57.028Z,16.35
2022-07-29T02:26:25.439Z,16.68
2022-07-29T02:28:53.496Z,16.66
2022-07-29T02:31:22.754Z,16.70
2022-07-29T02:33:50.030Z,16.80
2022-07-29T02:36:17.105Z,16.78
2022-07-29T02:38:53.717Z,16.96
2022-07-29T02:41:49.710Z,17.23
2022-07-29T02:44:17.896Z,16.85
2022-07-29T02:46:50.734Z,17.02
2022-07-29T02:49:26.514Z,17.00
2022-07-29T02:51:59.054Z,17.19
2022-07-29T02:54:31.404Z,17.05
2022-07-29T02:56:59.816Z,16.75
2022-07-29T02:59:28.655Z,16.31
2022-07-29T03:01:56.458Z,16.13
2022-07-29T03:04:25.227Z,16.23
2022-07-29T03:06:53.434Z,16.37
2022-07-29T03:09:20.623Z,16.99
2022-07-29T03:11:50.541Z,17.25
2022-07-29T03:14:18.718Z,17.48
2022-07-29T03:16:46.043Z,17.47
2022-07-29T03:19:12.876Z,17.44
2022-07-29T03:21:39.855Z,17.31
2022-07-29T03:24:12.511Z,17.55
2022-07-29T03:26:39.275Z,17.67
2022-07-29T03:29:05.910Z,17.32
2022-07-29T03:31:33.732Z,17.16
2022-07-29T03:34:00.873Z,16.68
2022-07-29T03:36:27.514Z,16.65
2022-07-29T03:38:54.326Z,16.78
2022-07-29T03:41:22.980Z,16.88
2022-07-29T03:43:50.811Z,17.29
2022-07-29T03:46:17.733Z,17.16
2022-07-29T03:48:47.533Z,16.90
2022-07-29T03:51:14.430Z,16.92
2022-07-29T03:53:41.093Z,16.94
2022-07-29T03:56:08.292Z,16.65
2022-07-29T03:58:35.572Z,16.85
2022-07-29T04:01:02.210Z,16.83
2022-07-29T04:03:28.826Z,17.21
2022-07-29T04:05:59.767Z,16.66
2022-07-29T04:08:26.621Z,17.14
2022-07-29T04:10:53.513Z,17.34
2022-07-29T04:13:20.935Z,17.26
2022-07-29T04:15:47.536Z,17.25
2022-07-29T04:18:14.135Z,17.40
2022-07-29T04:20:40.647Z,17.51
2022-07-29T04:23:07.272Z,17.51
2022-07-29T04:25:34.049Z,17.57
2022-07-29T04:28:04.011Z,17.37
2022-07-29T04:30:31.573Z,17.42
2022-07-29T04:32:58.218Z,17.31
2022-07-29T04:35:24.910Z,17.65
2022-07-29T04:37:51.583Z,17.36
2022-07-29T04:40:18.346Z,17.55
2022-07-29T04:42:47.294Z,17.34
2022-07-29T04:45:14.835Z,17.46
2022-07-29T04:47:42.632Z,17.77
2022-07-29T04:50:09.701Z,17.72
2022-07-29T04:52:36.413Z,18.00
2022-07-29T04:55:04.331Z,18.06
2022-07-29T04:57:30.896Z,18.00
2022-07-29T04:59:57.548Z,17.96
2022-07-29T05:02:24.256Z,18.03
2022-07-29T05:04:50.951Z,18.25
2022-07-29T05:07:17.934Z,18.50
2022-07-29T05:09:44.519Z,18.52
2022-07-29T05:12:11.128Z,18.33
2022-07-29T05:14:37.777Z,18.32
2022-07-29T05:17:04.329Z,18.23
2022-07-29T05:19:30.924Z,18.23
2022-07-29T05:21:57.571Z,18.05
2022-07-29T05:24:24.193Z,18.18
2022-07-29T05:26:50.954Z,18.32
2022-07-29T05:29:44.754Z,18.57
2022-07-29T05:32:05.040Z,18.46
2022-07-29T05:34:32.196Z,18.29
2022-07-29T05:36:59.028Z,18.55
2022-07-29T05:39:47.474Z,18.55
2022-07-29T05:42:12.208Z,18.75
2022-07-29T05:44:39.156Z,18.99
2022-07-29T05:47:06.191Z,19.05
2022-07-29T05:49:32.965Z,18.82
2022-07-29T05:51:59.754Z,18.73
2022-07-29T05:54:26.735Z,19.29
2022-07-29T05:56:53.417Z,19.16
2022-07-29T05:59:19.952Z,19.00
2022-07-29T06:01:46.673Z,19.12
2022-07-29T06:04:13.791Z,19.09
2022-07-29T06:06:40.664Z,18.98
2022-07-29T06:09:12.084Z,19.12
2022-07-29T06:11:39.682Z,18.96
2022-07-29T06:14:06.201Z,19.00
2022-07-29T06:16:32.893Z,19.34
2022-07-29T06:18:59.817Z,19.23
2022-07-29T06:21:26.570Z,19.43
2022-07-29T06:23:53.126Z,19.77
2022-07-29T06:26:19.742Z,19.85
2022-07-29T06:28:57.560Z,19.92
2022-07-29T06:31:24.198Z,19.91
2022-07-29T06:33:51.086Z,19.96
2022-07-29T06:36:17.772Z,20.06
2022-07-29T06:38:50.443Z,20.16
2022-07-29T06:41:18.227Z,19.87
2022-07-29T06:43:52.166Z,19.90
2022-07-29T06:46:21.977Z,19.85
2022-07-29T06:48:48.893Z,20.22
2022-07-29T06:51:16.274Z,20.00
2022-07-29T06:54:00.423Z,20.22
2022-07-29T06:56:30.111Z,20.48
2022-07-29T06:58:56.773Z,20.26
2022-07-29T07:01:23.394Z,20.59
2022-07-29T07:03:53.215Z,20.38
2022-07-29T07:06:19.818Z,20.39
2022-07-29T07:08:46.468Z,20.38
2022-07-29T07:11:13.174Z,20.66
2022-07-29T07:13:42.139Z,20.49
2022-07-29T07:16:08.698Z,20.82
2022-07-29T07:18:35.300Z,20.71
2022-07-29T07:21:02.006Z,20.74
2022-07-29T07:23:28.520Z,21.02
2022-07-29T07:25:55.137Z,21.15
2022-07-29T07:28:25.053Z,21.13
2022-07-29T07:30:52.344Z,21.36
2022-07-29T07:33:19.077Z,21.21
2022-07-29T07:35:46.441Z,21.25
2022-07-29T07:38:13.421Z,20.98
2022-07-29T07:40:40.095Z,21.00
2022-07-29T07:43:06.987Z,21.23
2022-07-29T07:45:34.077Z,21.19
2022-07-29T07:48:00.839Z,21.47
2022-07-29T07:50:27.718Z,21.54
2022-07-29T07:52:58.527Z,21.48
2022-07-29T07:55:25.571Z,22.02
2022-07-29T07:57:52.153Z,22.05
2022-07-29T08:00:18.751Z,22.25
2022-07-29T08:02:46.216Z,22.41
2022-07-29T08:05:17.666Z,22.59
2022-07-29T08:07:47.783Z,22.63
2022-07-29T08:10:37.107Z,22.70
2022-07-29T08:13:04.978Z,22.73
2022-07-29T08:15:31.493Z,22.70
2022-07-29T08:17:58.212Z,22.89
2022-07-29T08:20:25.153Z,22.70
2022-07-29T08:22:52.151Z,22.95
2022-07-29T08:25:21.321Z,23.18
2022-07-29T08:27:48.761Z,23.26
2022-07-29T08:30:16.444Z,23.39
2022-07-29T08:32:53.592Z,23.47
2022-07-29T08:35:21.922Z,23.60
2022-07-29T08:37:48.745Z,23.73
2022-07-29T08:40:15.519Z,24.02
2022-07-29T08:42:42.139Z,24.53
2022-07-29T08:45:09.228Z,24.75
2022-07-29T08:47:40.447Z,25.00
2022-07-29T08:50:08.448Z,25.14
2022-07-29T08:52:37.112Z,25.27
2022-07-29T08:55:04.935Z,25.00
2022-07-29T08:57:31.890Z,25.34
2022-07-29T09:00:06.239Z,25.32
2022-07-29T09:02:41.302Z,25.34
2022-07-29T09:05:08.395Z,25.45
2022-07-29T09:07:36.548Z,25.53
2022-07-29T09:10:04.905Z,25.74
2022-07-29T09:12:37.853Z,25.53
2022-07-29T09:15:05.053Z,25.67
2022-07-29T09:17:50.820Z,25.83
2022-07-29T09:20:18.979Z,26.17
2022-07-29T09:22:50.127Z,26.10
2022-07-29T09:25:35.721Z,26.21
2022-07-29T09:28:09.945Z,25.99
2022-07-29T09:30:36.787Z,26.50
2022-07-29T09:33:04.027Z,26.58
2022-07-29T09:35:31.551Z,26.68
2022-07-29T09:37:58.320Z,26.93
2022-07-29T09:40:26.684Z,26.99
2022-07-29T09:42:57.927Z,26.90
2022-07-29T09:45:33.281Z,27.34
2022-07-29T09:48:01.521Z,26.99
2022-07-29T09:50:38.597Z,27.15
2022-07-29T09:53:05.292Z,27.95
2022-07-29T09:55:31.831Z,27.92
2022-07-29T09:58:17.630Z,27.99
2022-07-29T10:00:47.021Z,28.24
2022-07-29T10:03:14.325Z,28.20
2022-07-29T10:05:50.507Z,28.38
2022-07-29T10:08:25.635Z,28.67
2022-07-29T10:10:52.280Z,28.60
2022-07-29T10:13:18.949Z,28.73
2022-07-29T10:15:46.849Z,28.66
2022-07-29T10:18:14.392Z,28.54
2022-07-29T10:20:41.374Z,28.61
2022-07-29T10:23:08.002Z,28.68
2022-07-29T10:25:34.615Z,28.98
2022-07-29T10:28:01.181Z,29.06
2022-07-29T10:30:27.842Z,29.50
2022-07-29T10:33:13.228Z,29.65
2022-07-29T10:35:49.371Z,29.81
2022-07-29T10:38:27.275Z,29.75
2022-07-29T10:41:23.599Z,29.77
2022-07-29T10:43:52.615Z,29.78
2022-07-29T10:46:21.531Z,30.06
2022-07-29T10:49:10.077Z,30.15
2022-07-29T10:51:58.239Z,31.04
2022-07-29T10:54:34.997Z,31.31
2022-07-29T10:57:14.982Z,31.80
2022-07-29T10:59:44.593Z,31.92
2022-07-29T11:02:41.975Z,32.15
2022-07-29T11:08:20.297Z,31.63
2022-07-29T11:10:52.388Z,30.90
2022-07-29T11:13:56.927Z,30.91
2022-07-29T11:16:25.210Z,30.54
2022-07-29T11:19:10.826Z,30.46
2022-07-29T11:24:33.357Z,29.51
2022-07-29T11:27:13.886Z,29.33
2022-07-29T11:29:56.643Z,29.67
2022-07-29T11:32:24.976Z,29.95
2022-07-29T11:35:17.483Z,30.29
2022-07-29T11:37:55.897Z,30.57
2022-07-29T11:40:24.597Z,30.90
2022-07-29T11:42:52.420Z,30.63
2022-07-29T11:45:42.131Z,30.22
2022-07-29T11:48:31.323Z,30.27
2022-07-29T11:50:54.977Z,30.42
2022-07-29T11:53:21.834Z,29.80
2022-07-29T11:55:57.479Z,30.24
2022-07-29T11:58:26.018Z,30.08
2022-07-29T12:00:55.687Z,29.98
2022-07-29T12:03:35.138Z,29.92
2022-07-29T12:06:02.429Z,29.92
2022-07-29T12:08:29.101Z,29.87
2022-07-29T12:10:55.833Z,29.97
2022-07-29T12:13:22.769Z,30.03
2022-07-29T12:16:04.075Z,30.05
2022-07-29T12:18:33.225Z,29.51
2022-07-29T12:21:03.942Z,29.54
2022-07-29T12:23:35.126Z,29.21
2022-07-29T12:26:07.204Z,29.48
2022-07-29T12:28:40.103Z,29.54
2022-07-29T12:31:08.261Z,29.59
2022-07-29T12:33:35.993Z,29.79
2022-07-29T12:36:07.505Z,29.73
2022-07-29T12:38:37.767Z,29.83
2022-07-29T12:41:04.936Z,30.03
2022-07-29T12:43:31.872Z,29.91
2022-07-29T12:45:58.541Z,29.96
2022-07-29T12:48:36.299Z,29.73
2022-07-29T12:51:04.049Z,29.52
2022-07-29T12:53:31.089Z,29.82
2022-07-29T12:55:58.208Z,30.02
2022-07-29T12:58:30.895Z,30.11
2022-07-29T13:01:06.831Z,29.86
2022-07-29T13:03:57.123Z,30.09
2022-07-29T13:06:41.634Z,30.15
2022-07-29T13:09:14.423Z,30.21
2022-07-29T13:11:48.616Z,30.17
2022-07-29T13:14:31.571Z,30.27
2022-07-29T13:17:14.497Z,30.25
2022-07-29T13:19:42.743Z,30.31
2022-07-29T13:22:10.301Z,30.25
2022-07-29T13:24:47.087Z,30.33
2022-07-29T13:27:18.192Z,30.40
2022-07-29T13:29:45.027Z,30.43
2022-07-29T13:32:12.892Z,30.56
2022-07-29T13:34:39.530Z,30.58
2022-07-29T13:37:07.925Z,30.63
2022-07-29T13:39:34.769Z,30.57
2022-07-29T13:42:02.110Z,30.58
2022-07-29T13:44:28.742Z,30.53
2022-07-29T13:46:55.389Z,30.64
2022-07-29T13:49:22.323Z,30.69
2022-07-29T13:51:50.008Z,30.52
2022-07-29T13:54:16.780Z,30.50
2022-07-29T13:56:46.300Z,30.38
2022-07-29T13:59:13.164Z,30.86
2022-07-29T14:01:42.593Z,30.90
2022-07-29T14:04:09.990Z,30.88
2022-07-29T14:06:45.006Z,30.95
2022-07-29T14:09:12.137Z,30.95
2022-07-29T14:11:39.471Z,31.07
2022-07-29T14:14:06.182Z,31.11
2022-07-29T14:16:32.762Z,31.13
2022-07-29T14:19:00.477Z,31.10
2022-07-29T14:21:27.068Z,31.05
2022-07-29T14:23:55.553Z,30.97
2022-07-29T14:26:24.200Z,30.81
2022-07-29T14:28:53.677Z,30.74
2022-07-29T14:31:20.233Z,30.63
2022-07-29T14:33:49.268Z,30.69
2022-07-29T14:36:16.364Z,30.72
2022-07-29T14:38:43.010Z,30.80
2022-07-29T14:41:09.632Z,30.75
2022-07-29T14:43:36.241Z,30.76
2022-07-29T14:46:08.178Z,30.77
2022-07-29T14:48:35.208Z,30.73
2022-07-29T14:51:04.693Z,30.82
2022-07-29T14:53:31.824Z,30.77
2022-07-29T14:56:06.221Z,30.46
2022-07-29T14:58:51.636Z,30.44
2022-07-29T15:01:18.736Z,30.20
2022-07-29T15:03:45.379Z,30.53
2022-07-29T15:06:12.318Z,30.62
2022-07-29T15:08:41.428Z,30.53
2022-07-29T15:11:08.054Z,30.54
2022-07-29T15:13:35.010Z,30.55
2022-07-29T15:16:03.434Z,30.56
2022-07-29T15:18:30.010Z,30.53
2022-07-29T15:20:56.573Z,30.51
2022-07-29T15:23:23.370Z,30.47
2022-07-29T15:25:49.955Z,30.50
2022-07-29T15:28:16.502Z,30.42
2022-07-29T15:30:43.167Z,30.42
2022-07-29T15:33:10.491Z,30.44
2022-07-29T15:35:39.944Z,30.41
2022-07-29T15:38:07.517Z,30.34
2022-07-29T15:40:34.328Z,30.25
2022-07-29T15:43:06.732Z,30.21
2022-07-29T15:45:40.426Z,30.14
2022-07-29T15:48:08.121Z,30.24
2022-07-29T15:50:34.989Z,30.28
2022-07-29T15:53:02.152Z,30.40
2022-07-29T15:55:28.715Z,30.39
2022-07-29T15:58:00.330Z,30.43
2022-07-29T16:00:27.327Z,30.46
2022-07-29T16:02:53.865Z,30.50
2022-07-29T16:05:20.494Z,30.44
2022-07-29T16:07:47.107Z,30.47
2022-07-29T16:10:13.781Z,30.45
2022-07-29T16:12:40.349Z,30.43
2022-07-29T16:15:10.491Z,30.49
2022-07-29T16:17:37.943Z,30.42
2022-07-29T16:20:05.869Z,30.42
2022-07-29T16:22:32.568Z,29.96
2022-07-29T16:25:00.849Z,30.14
2022-07-29T16:27:35.335Z,30.13
2022-07-29T16:30:05.325Z,29.93
2022-07-29T16:32:31.904Z,30.06
2022-07-29T16:34:58.682Z,30.05
2022-07-29T16:37:25.318Z,30.02
2022-07-29T16:39:56.592Z,29.96
2022-07-29T16:42:44.317Z,29.98
2022-07-29T16:45:10.034Z,30.11
2022-07-29T16:47:37.189Z,29.78
2022-07-29T16:50:04.836Z,29.67
2022-07-29T16:52:31.465Z,29.89
2022-07-29T16:54:58.084Z,29.90
2022-07-29T16:57:24.620Z,29.68
2022-07-29T16:59:51.603Z,29.71
2022-07-29T17:02:18.287Z,29.64
2022-07-29T17:04:44.927Z,29.76
2022-07-29T17:07:11.828Z,29.87
2022-07-29T17:09:38.571Z,29.90
2022-07-29T17:12:05.342Z,30.11
2022-07-29T17:14:32.188Z,29.99
2022-07-29T17:17:03.279Z,29.93
2022-07-29T17:19:31.614Z,29.44
2022-07-29T17:22:06.400Z,29.64
2022-07-29T17:24:35.830Z,29.62
2022-07-29T17:27:02.458Z,29.53
2022-07-29T17:29:29.033Z,29.65
2022-07-29T17:31:55.608Z,29.70
2022-07-29T17:34:22.280Z,29.62
2022-07-29T17:36:48.963Z,29.62
2022-07-29T17:39:15.544Z,29.42
2022-07-29T17:41:42.409Z,29.52
2022-07-29T17:44:09.516Z,29.55
2022-07-29T17:46:36.276Z,29.52
2022-07-29T17:49:03.329Z,29.30
2022-07-29T17:51:30.315Z,29.57
2022-07-29T17:53:58.240Z,29.46
2022-07-29T17:56:25.101Z,29.58
2022-07-29T17:58:51.674Z,29.39
2022-07-29T18:01:18.299Z,29.61
2022-07-29T18:03:45.502Z,29.71
2022-07-29T18:06:12.120Z,29.65
2022-07-29T18:08:39.408Z,29.63
2022-07-29T18:11:06.441Z,29.43
2022-07-29T18:13:33.340Z,29.28
2022-07-29T18:16:00.695Z,29.22
2022-07-29T18:18:27.677Z,29.13
2022-07-29T18:20:54.335Z,29.05
2022-07-29T18:23:21.304Z,28.95
2022-07-29T18:25:47.972Z,28.67
2022-07-29T18:28:14.701Z,28.67
2022-07-29T18:30:41.595Z,28.44
2022-07-29T18:33:22.881Z,28.61
2022-07-29T18:35:50.557Z,28.50
2022-07-29T18:38:17.757Z,28.36
2022-07-29T18:40:45.743Z,28.32
2022-07-29T18:43:12.776Z,28.24
2022-07-29T18:45:39.745Z,28.11
2022-07-29T18:48:08.412Z,27.98
2022-07-29T18:50:39.733Z,27.90
2022-07-29T18:53:06.292Z,27.81
2022-07-29T18:55:32.927Z,27.68
2022-07-29T18:57:59.598Z,27.57
2022-07-29T19:00:26.947Z,27.47
2022-07-29T19:02:53.689Z,27.40
2022-07-29T19:05:20.689Z,27.24
2022-07-29T19:07:47.226Z,27.14
2022-07-29T19:10:14.069Z,27.10
2022-07-29T19:13:00.628Z,26.99
2022-07-29T19:15:27.372Z,26.81
2022-07-29T19:17:56.645Z,26.60
2022-07-29T19:20:27.311Z,26.57
2022-07-29T19:22:56.213Z,26.45
2022-07-29T19:25:23.296Z,26.26
2022-07-29T19:27:50.034Z,26.31
2022-07-29T19:30:16.661Z,26.13
2022-07-29T19:32:43.249Z,26.25
2022-07-29T19:35:25.361Z,26.16
2022-07-29T19:37:52.586Z,26.09
2022-07-29T19:40:19.152Z,25.68
2022-07-29T19:42:46.164Z,25.83
2022-07-29T19:45:12.806Z,25.97
2022-07-29T19:47:39.448Z,26.03
2022-07-29T19:50:06.802Z,26.10
2022-07-29T19:52:33.551Z,26.04
2022-07-29T19:55:05.285Z,25.98
2022-07-29T19:57:35.993Z,25.85
2022-07-29T20:00:08.108Z,25.87
2022-07-29T20:02:38.146Z,25.85
2022-07-29T20:05:04.966Z,25.73
2022-07-29T20:07:31.584Z,25.66
2022-07-29T20:09:58.221Z,25.41
2022-07-29T20:12:25.182Z,25.15
2022-07-29T20:14:51.893Z,25.16
2022-07-29T20:17:22.488Z,25.09
2022-07-29T20:19:49.779Z,25.02
2022-07-29T20:22:21.036Z,25.19
2022-07-29T20:24:48.254Z,25.17
2022-07-29T20:27:14.835Z,25.22
2022-07-29T20:29:41.837Z,25.18
2022-07-29T20:32:10.869Z,25.19
2022-07-29T20:34:37.484Z,25.10
2022-07-29T20:37:04.092Z,25.05
2022-07-29T20:39:30.762Z,25.20
2022-07-29T20:41:57.875Z,25.12
2022-07-29T20:44:24.660Z,24.98
2022-07-29T20:46:51.418Z,25.07
2022-07-29T20:49:18.156Z,25.09
2022-07-29T20:51:44.751Z,25.11
2022-07-29T20:54:11.895Z,25.08
2022-07-29T20:56:38.719Z,25.05
2022-07-29T20:59:05.323Z,25.02
2022-07-29T21:01:31.963Z,25.01
2022-07-29T21:03:58.718Z,24.94
2022-07-29T21:06:25.603Z,24.94
2022-07-29T21:08:52.353Z,24.91
2022-07-29T21:11:43.321Z,24.90
2022-07-29T21:14:06.485Z,25.01
2022-07-29T21:16:33.865Z,24.87
2022-07-29T21:19:02.021Z,24.94
2022-07-29T21:21:28.588Z,24.91
2022-07-29T21:23:55.175Z,24.90
2022-07-29T21:26:21.765Z,24.88
2022-07-29T21:28:50.596Z,24.86
2022-07-29T21:31:17.401Z,24.91
2022-07-29T21:33:45.973Z,24.87
2022-07-29T21:36:46.492Z,24.86
2022-07-29T21:39:00.777Z,24.91
2022-07-29T21:41:27.381Z,24.59
2022-07-29T21:43:54.694Z,24.53
2022-07-29T21:46:24.990Z,24.52
2022-07-29T21:48:51.865Z,24.30
2022-07-29T21:51:18.532Z,24.32
2022-07-29T21:53:45.163Z,24.25
2022-07-29T21:56:14.902Z,24.26
2022-07-29T21:58:43.232Z,23.89
2022-07-29T22:01:10.150Z,24.16
2022-07-29T22:03:36.818Z,24.26
2022-07-29T22:06:03.490Z,24.42
2022-07-29T22:08:30.115Z,24.44
2022-07-29T22:10:56.726Z,24.44
2022-07-29T22:13:23.306Z,24.42
2022-07-29T22:15:49.902Z,24.77
2022-07-29T22:18:20.818Z,24.73
2022-07-29T22:20:48.509Z,24.72
2022-07-29T22:23:16.547Z,24.96
2022-07-29T22:25:43.196Z,24.95
2022-07-29T22:28:09.754Z,24.78
2022-07-29T22:30:36.400Z,24.67
2022-07-29T22:33:03.011Z,24.87
2022-07-29T22:35:29.602Z,25.00
2022-07-29T22:37:56.174Z,24.74
2022-07-29T22:40:22.827Z,24.72
2022-07-29T22:42:57.583Z,24.87
2022-07-29T22:45:24.252Z,24.95
2022-07-29T22:47:55.938Z,25.08
2022-07-29T22:50:24.676Z,24.76
2022-07-29T22:52:51.346Z,24.98
2022-07-29T22:55:17.994Z,24.53
2022-07-29T22:57:44.760Z,24.72
2022-07-29T23:00:11.815Z,24.89
2022-07-29T23:02:38.403Z,24.98
2022-07-29T23:05:05.180Z,24.77
2022-07-29T23:07:33.204Z,24.64
2022-07-29T23:09:59.836Z,24.75
2022-07-29T23:12:26.398Z,24.83
2022-07-29T23:14:53.049Z,24.84
2022-07-29T23:17:19.646Z,24.56
2022-07-29T23:19:46.426Z,24.53
2022-07-29T23:22:13.018Z,24.50
2022-07-29T23:24:39.662Z,24.64
2022-07-29T23:27:07.563Z,24.50
2022-07-29T23:29:36.791Z,24.78
2022-07-29T23:32:05.534Z,24.97
2022-07-29T23:34:32.229Z,25.31
2022-07-29T23:36:59.206Z,25.45
2022-07-29T23:39:25.990Z,25.68
2022-07-29T23:41:52.604Z,25.27
2022-07-29T23:44:19.157Z,24.84
2022-07-29T23:46:45.841Z,24.52
2022-07-29T23:49:13.681Z,25.10
2022-07-29T23:51:40.364Z,24.83
2022-07-29T23:54:06.901Z,24.72
2022-07-29T23:56:33.645Z,25.09
2022-07-29T23:59:00.239Z,24.98
